Flag for India

Past Weather in Unnao, Uttar Pradesh, India — Yesterday and Last 2 Weeks

Currently: 66 °F. Fog. (Weather station: Lucknow / Amausi, India). See more current weather

Past Weather in Unnao — Graph

°F

Unnao Temperature Yesterday

Maximum temperature yesterday: 90 °F (at 2:30 pm)
Minimum temperature yesterday: 61 °F (at 6:00 am)
Average temperature yesterday: 74 °F

High & Low Weather Summary for the Past Weeks

 TemperatureHumidityPressure
High97 °F (Oct 16, 1:30 pm)94% (Oct 16, 4:00 am)29.98 "Hg (Oct 16, 4:00 am)
Low61 °F (Oct 28, 5:30 am)26% (Oct 25, 3:00 pm)29.65 "Hg (Oct 15, 4:00 pm)
Average79 °F68%29.78 "Hg
* Reported Oct 15 6:30 am — Oct 30 6:30 am, Unnao. Weather by CustomWeather, © 2020

Note: Actual official high and low records may vary slightly from our data, if they occured in-between our weather recording intervals... More about our weather records

Unnao Weather History for the Previous 24 Hours

Scroll right to see more
 ConditionsComfort  
Time TempWeatherWind HumidityBarometerVisibility
6:30 am
Fri, Oct 30
64 °FFog.No wind83%29.92 "Hg1 mi
6:00 am64 °FFog.No wind83%29.89 "Hg1 mi
5:00 am64 °FFog.No wind83%29.89 "Hg1 mi
4:30 am64 °FFog.No wind83%29.89 "Hg1 mi
4:00 am64 °FFog.No wind83%29.89 "Hg1 mi
3:30 am64 °FFog.No wind83%29.89 "Hg1 mi
3:00 am64 °FFog.No wind83%29.89 "Hg1 mi
2:30 am64 °FFog.No wind83%29.89 "Hg1 mi
11:00 pm
Thu, Oct 29
68 °FHaze.No wind78%29.92 "Hg1 mi
10:30 pm68 °FHaze.No wind78%29.92 "Hg1 mi
10:00 pm68 °FHaze.No wind78%29.92 "Hg2 mi
9:30 pm70 °FHaze.No wind73%29.92 "Hg2 mi
9:00 pm72 °FHaze.No wind69%29.89 "Hg2 mi
8:30 pm73 °FHaze.No wind65%29.89 "Hg2 mi
8:00 pm73 °FHaze.No wind65%29.89 "Hg2 mi
7:30 pm77 °FHaze.No wind57%29.89 "Hg2 mi
7:00 pm77 °FHaze.No wind54%29.86 "Hg2 mi
6:30 pm79 °FHaze.No wind51%29.86 "Hg2 mi
6:00 pm81 °FHaze.No wind45%29.86 "Hg2 mi
5:30 pm84 °FHaze.No wind37%29.86 "Hg2 mi
5:00 pm86 °FHaze.2 mph33%29.86 "Hg2 mi
4:30 pm86 °FHaze.2 mph31%29.86 "Hg2 mi
4:00 pm88 °FHaze.2 mph29%29.86 "Hg2 mi
3:30 pm88 °FHaze.2 mph29%29.86 "Hg2 mi
3:00 pm88 °FHaze.5 mph29%29.86 "Hg2 mi
2:30 pm90 °FHaze.3 mph27%29.86 "Hg2 mi
2:00 pm88 °FHaze.5 mph33%29.86 "Hg2 mi
1:30 pm88 °FHaze.3 mph33%29.89 "Hg2 mi
1:00 pm88 °FHaze.5 mph33%29.89 "Hg2 mi
12:30 pm86 °FHaze.7 mph35%29.92 "Hg2 mi
12:00 pm86 °FHaze.5 mph35%29.95 "Hg2 mi
11:30 am86 °FHaze.5 mph35%29.98 "Hg2 mi
11:00 am84 °FHaze.2 mph40%29.98 "Hg2 mi
10:00 am79 °FHaze.No wind51%29.98 "Hg1 mi
9:00 am72 °FHaze.No wind65%29.98 "Hg1 mi
8:30 am70 °FHaze.No wind60%29.98 "Hg1 mi
8:00 am66 °FFog.No wind73%29.95 "Hg1 mi
Weather by CustomWeather, © 2020

See weather overview